| Date | Time | Temp. (oF) | Dew Point (oF) | Rel. Hum. (%) | Press. (in.) | Wind Dir. | Wind Speed (mph) | Hourly Rainfall (in.) |
|
|---|---|---|---|---|---|---|---|---|---|
| 1 | 03/12 | 00:00 | 23 | 5 | 47 | 30.36 | NW | 0 | 0.00 |
| 2 | 03/11 | 23:00 | 23 | 5 | 47 | 30.35 | NW | 0 | 0.00 |
| 3 | 03/11 | 22:00 | 24 | 6 | 46 | 30.34 | NW | 0 | 0.00 |
| 4 | 03/11 | 21:00 | 24 | 4 | 43 | 30.32 | NW | 0 | 0.00 |
| 5 | 03/11 | 20:00 | 25 | 5 | 42 | 30.30 | NW | 0 | 0.00 |
| 6 | 03/11 | 19:00 | 26 | 5 | 41 | 30.27 | NW | 0 | 0.00 |
| 7 | 03/11 | 18:00 | 28 | 5 | 38 | 30.24 | NW | 0 | 0.00 |
| 8 | 03/11 | 17:00 | 30 | 4 | 34 | 30.23 | NW | 0 | 0.00 |
| 9 | 03/11 | 16:00 | 31 | 5 | 33 | 30.23 | NW | 0 | 0.00 |
| 10 | 03/11 | 15:00 | 30 | 6 | 36 | 30.23 | NW | 0 | 0.00 |
| 11 | 03/11 | 14:00 | 29 | 3 | 33 | 30.23 | NW | 0 | 0.00 |
| 12 | 03/11 | 13:00 | 28 | 4 | 36 | 30.25 | NW | 0 | 0.00 |
| 13 | 03/11 | 12:00 | 27 | 4 | 37 | 30.26 | NW | 0 | 0.00 |
| 14 | 03/11 | 11:00 | 26 | 5 | 42 | 30.27 | NW | 0 | 0.00 |
| 15 | 03/11 | 10:00 | 24 | 3 | 41 | 30.28 | NW | 0 | 0.00 |
| 16 | 03/11 | 09:00 | 22 | 3 | 44 | 30.29 | NW | 0 | 0.00 |
| 17 | 03/11 | 08:00 | 20 | 3 | 48 | 30.29 | NW | 0 | 0.00 |
| 18 | 03/11 | 07:00 | 18 | 3 | 52 | 30.27 | NW | 0 | 0.00 |
| 19 | 03/11 | 06:00 | 18 | 2 | 50 | 30.25 | NW | 0 | 0.00 |
| 20 | 03/11 | 05:00 | 18 | 2 | 51 | 30.23 | NW | 0 | 0.00 |
| 21 | 03/11 | 04:00 | 18 | 2 | 49 | 30.20 | NW | 0 | 0.00 |
| 22 | 03/11 | 03:00 | 20 | 4 | 51 | 30.18 | NW | 0 | 0.00 |
| 23 | 03/11 | 02:00 | 21 | 5 | 50 | 30.18 | NW | 0 | 0.00 |
| 24 | 03/11 | 01:00 | 22 | 3 | 44 | 30.17 | NW | 0 | 0.00 |